createdAt,value
2019-03-11T00:00:53.022Z,10.30
2019-03-11T00:03:22.283Z,10.20
2019-03-11T00:05:51.624Z,10.20
2019-03-11T00:08:20.722Z,10.20
2019-03-11T00:10:49.922Z,10.10
2019-03-11T00:13:22.283Z,10.00
2019-03-11T00:15:51.655Z,10.00
2019-03-11T00:18:21.039Z,10.00
2019-03-11T00:20:50.858Z,9.90
2019-03-11T00:23:20.195Z,9.80
2019-03-11T00:25:49.858Z,9.70
2019-03-11T00:28:19.364Z,9.60
2019-03-11T00:30:49.035Z,9.50
2019-03-11T00:33:19.324Z,9.50
2019-03-11T00:35:48.802Z,9.40
2019-03-11T00:38:18.318Z,9.40
2019-03-11T00:40:47.938Z,9.30
2019-03-11T00:43:17.498Z,9.20
2019-03-11T00:45:47.427Z,9.10
2019-03-11T00:48:17.938Z,9.10
2019-03-11T00:50:50.798Z,9.10
2019-03-11T00:53:20.899Z,9.10
2019-03-11T00:55:50.378Z,9.20
2019-03-11T00:58:21.208Z,9.60
2019-03-11T01:00:50.904Z,9.70
2019-03-11T01:03:21.264Z,9.80
2019-03-11T01:05:51.338Z,9.80
2019-03-11T01:08:21.719Z,9.70
2019-03-11T01:10:51.358Z,9.70
2019-03-11T01:13:21.939Z,9.80
2019-03-11T01:15:51.951Z,9.80
2019-03-11T01:18:22.317Z,9.90
2019-03-11T01:20:52.379Z,9.90
2019-03-11T01:23:22.239Z,9.80
2019-03-11T01:25:51.924Z,9.80
2019-03-11T01:28:21.398Z,9.80
2019-03-11T01:30:51.399Z,9.80
2019-03-11T01:33:20.798Z,9.90
2019-03-11T01:35:50.282Z,10.10
2019-03-11T01:38:20.237Z,10.20
2019-03-11T01:40:49.499Z,10.30
2019-03-11T01:43:19.180Z,10.30
2019-03-11T01:45:51.120Z,10.30
2019-03-11T01:48:20.640Z,10.20
2019-03-11T01:50:50.319Z,10.10
2019-03-11T01:53:19.958Z,9.90
2019-03-11T01:55:49.759Z,9.70
2019-03-11T01:58:19.398Z,9.70
2019-03-11T02:00:49.185Z,9.80
2019-03-11T02:03:31.947Z,9.90
2019-03-11T02:06:01.805Z,9.80
2019-03-11T02:08:31.006Z,9.80
2019-03-11T02:11:00.765Z,9.80
2019-03-11T02:13:29.959Z,9.60
2019-03-11T02:15:59.359Z,9.70
2019-03-11T02:18:28.660Z,9.70
2019-03-11T02:20:58.002Z,9.60
2019-03-11T02:23:27.859Z,9.60
2019-03-11T02:25:57.569Z,9.50
2019-03-11T02:28:26.838Z,9.50
2019-03-11T02:30:56.521Z,9.40
2019-03-11T02:33:26.038Z,9.30
2019-03-11T02:35:55.539Z,9.20
2019-03-11T02:38:24.824Z,9.10
2019-03-11T02:40:54.479Z,9.20
2019-03-11T02:43:24.120Z,9.10
2019-03-11T02:45:54.259Z,9.10
2019-03-11T02:48:23.560Z,9.10
2019-03-11T02:50:53.099Z,9.10
2019-03-11T02:53:22.880Z,9.00
2019-03-11T02:55:52.651Z,9.10
2019-03-11T02:58:21.678Z,9.00
2019-03-11T03:00:53.222Z,8.90
2019-03-11T03:03:41.373Z,8.80
2019-03-11T03:06:12.822Z,8.80
2019-03-11T03:08:42.920Z,8.70
2019-03-11T03:11:12.163Z,8.70
2019-03-11T03:13:41.339Z,8.70
2019-03-11T03:16:11.778Z,8.60
2019-03-11T03:18:41.298Z,8.60
2019-03-11T03:21:11.320Z,8.60
2019-03-11T03:23:40.779Z,8.60
2019-03-11T03:26:09.878Z,8.50
2019-03-11T03:28:39.325Z,8.40
2019-03-11T03:31:08.825Z,8.30
2019-03-11T03:33:38.879Z,8.10
2019-03-11T03:36:08.560Z,8.10
2019-03-11T03:38:38.279Z,8.10
2019-03-11T03:41:08.758Z,8.00
2019-03-11T03:43:38.260Z,8.00
2019-03-11T03:46:18.510Z,8.00
2019-03-11T03:48:39.269Z,7.90
2019-03-11T03:51:09.400Z,7.90
2019-03-11T03:53:39.999Z,7.90
2019-03-11T03:56:09.561Z,7.90
2019-03-11T03:58:39.320Z,7.90
2019-03-11T04:01:11.183Z,7.80
2019-03-11T04:03:41.079Z,7.80
2019-03-11T04:06:10.802Z,7.80
2019-03-11T04:08:40.239Z,7.70
2019-03-11T04:11:10.459Z,7.70
2019-03-11T04:13:39.917Z,7.60
2019-03-11T04:16:09.421Z,7.60
2019-03-11T04:18:53.160Z,7.50
2019-03-11T04:21:23.058Z,7.50
2019-03-11T04:23:52.630Z,7.50
2019-03-11T04:26:25.040Z,7.50
2019-03-11T04:28:55.019Z,7.50
2019-03-11T04:31:24.440Z,7.50
2019-03-11T04:33:53.781Z,7.50
2019-03-11T04:36:23.320Z,7.40
2019-03-11T04:38:52.939Z,7.50
2019-03-11T04:41:22.637Z,7.40
2019-03-11T04:43:51.961Z,7.40
2019-03-11T04:46:25.458Z,7.30
2019-03-11T04:48:55.078Z,7.30
2019-03-11T04:51:28.598Z,7.30
2019-03-11T04:53:58.018Z,7.20
2019-03-11T04:56:27.258Z,7.20
2019-03-11T04:58:59.718Z,7.10
2019-03-11T05:01:29.285Z,7.10
2019-03-11T05:03:58.685Z,7.10
2019-03-11T05:06:28.179Z,7.10
2019-03-11T05:08:59.765Z,7.00
2019-03-11T05:11:29.171Z,7.00
2019-03-11T05:13:59.318Z,7.00
2019-03-11T05:16:28.767Z,7.00
2019-03-11T05:18:59.145Z,7.10
2019-03-11T05:21:28.848Z,7.10
2019-03-11T05:23:58.626Z,7.10
2019-03-11T05:26:28.467Z,7.00
2019-03-11T05:28:57.887Z,7.00
2019-03-11T05:31:29.627Z,7.00
2019-03-11T05:33:59.327Z,7.10
2019-03-11T05:36:28.926Z,7.20
2019-03-11T05:38:58.469Z,7.20
2019-03-11T05:41:27.728Z,7.20
2019-03-11T05:43:59.478Z,7.30
2019-03-11T05:46:28.959Z,7.30
2019-03-11T05:48:58.678Z,7.30
2019-03-11T05:51:31.979Z,7.30
2019-03-11T05:53:58.999Z,7.30
2019-03-11T05:56:28.780Z,7.20
2019-03-11T05:58:58.218Z,7.30
2019-03-11T06:01:27.619Z,7.30
2019-03-11T06:03:57.258Z,7.30
2019-03-11T06:06:26.518Z,7.30
2019-03-11T06:08:55.978Z,7.30
2019-03-11T06:11:25.358Z,7.30
2019-03-11T06:13:54.898Z,7.30
2019-03-11T06:16:24.601Z,7.30
2019-03-11T06:18:54.552Z,7.30
2019-03-11T06:21:31.340Z,7.30
2019-03-11T06:24:00.877Z,7.20
2019-03-11T06:26:30.238Z,7.20
2019-03-11T06:28:59.584Z,7.20
2019-03-11T06:31:29.219Z,7.20
2019-03-11T06:33:58.686Z,7.20
2019-03-11T06:36:28.063Z,7.20
2019-03-11T06:39:05.353Z,7.20
2019-03-11T06:41:28.329Z,7.10
2019-03-11T06:43:57.609Z,7.10
2019-03-11T06:46:26.849Z,7.10
2019-03-11T06:48:56.017Z,7.10
2019-03-11T06:51:25.208Z,7.10
2019-03-11T06:53:54.261Z,7.20
2019-03-11T06:56:23.859Z,7.20
2019-03-11T06:58:54.478Z,7.20
2019-03-11T07:01:24.131Z,7.20
2019-03-11T07:03:54.523Z,7.20
2019-03-11T07:06:23.726Z,7.20
2019-03-11T07:08:53.284Z,7.20
2019-03-11T07:11:23.204Z,7.20
2019-03-11T07:13:52.923Z,7.40
2019-03-11T07:16:22.764Z,8.40
2019-03-11T07:18:52.143Z,9.10
2019-03-11T07:21:21.342Z,9.50
2019-03-11T07:23:50.682Z,11.30
2019-03-11T07:26:19.866Z,11.30
2019-03-11T07:28:49.582Z,11.40
2019-03-11T07:31:18.891Z,13.50
2019-03-11T07:33:48.567Z,13.60
2019-03-11T07:36:17.930Z,14.00
2019-03-11T07:38:47.622Z,15.40
2019-03-11T07:41:17.061Z,14.70
2019-03-11T07:43:46.938Z,13.50
2019-03-11T07:46:16.479Z,13.10
2019-03-11T07:48:47.279Z,12.40
2019-03-11T07:51:16.779Z,13.30
2019-03-11T07:53:49.078Z,14.80
2019-03-11T07:56:18.098Z,17.00
2019-03-11T07:58:47.358Z,17.70
2019-03-11T08:01:16.923Z,18.30
2019-03-11T08:03:46.306Z,17.10
2019-03-11T08:06:21.079Z,15.00
2019-03-11T08:08:50.500Z,13.50
2019-03-11T08:11:19.718Z,12.50
2019-03-11T08:13:49.098Z,11.60
2019-03-11T08:16:19.635Z,11.10
2019-03-11T08:18:48.917Z,10.50
2019-03-11T08:21:18.278Z,10.30
2019-03-11T08:23:47.479Z,10.30
2019-03-11T08:26:17.079Z,10.30
2019-03-11T08:28:46.499Z,10.20
2019-03-11T08:31:15.718Z,10.10
2019-03-11T08:33:44.966Z,10.10
2019-03-11T08:36:14.278Z,10.00
2019-03-11T08:38:43.703Z,10.00
2019-03-11T08:41:13.380Z,9.90
2019-03-11T08:43:42.878Z,10.20
2019-03-11T08:46:12.172Z,10.40
2019-03-11T08:48:41.359Z,10.30
2019-03-11T08:51:10.677Z,10.40
2019-03-11T08:53:39.582Z,10.50
2019-03-11T08:56:08.579Z,10.40
2019-03-11T08:58:38.009Z,10.40
2019-03-11T09:01:07.543Z,10.70
2019-03-11T09:03:36.781Z,10.90
2019-03-11T09:06:06.402Z,10.80
2019-03-11T09:08:35.802Z,10.80
2019-03-11T09:11:05.456Z,10.80
2019-03-11T09:13:34.675Z,10.90
2019-03-11T09:16:04.123Z,10.90
2019-03-11T09:18:33.782Z,11.00
2019-03-11T09:21:04.829Z,10.80
2019-03-11T09:23:35.016Z,10.80
2019-03-11T09:26:04.382Z,10.60
2019-03-11T09:28:39.570Z,10.50
2019-03-11T09:31:08.785Z,10.60
2019-03-11T09:33:40.178Z,10.90
2019-03-11T09:36:09.878Z,11.10
2019-03-11T09:38:39.018Z,11.20
2019-03-11T09:41:08.227Z,11.10
2019-03-11T09:43:37.398Z,11.20
2019-03-11T09:46:06.738Z,11.10
2019-03-11T09:48:35.918Z,11.10
2019-03-11T09:51:05.459Z,11.10
2019-03-11T09:53:34.759Z,11.30
2019-03-11T09:56:09.588Z,11.40
2019-03-11T09:58:38.326Z,11.50
2019-03-11T10:01:12.480Z,11.40
2019-03-11T10:03:42.019Z,11.20
2019-03-11T10:06:11.658Z,11.10
2019-03-11T10:08:40.858Z,11.00
2019-03-11T10:11:12.298Z,10.90
2019-03-11T10:13:41.328Z,10.90
2019-03-11T10:16:12.779Z,10.80
2019-03-11T10:18:42.378Z,10.80
2019-03-11T10:21:11.939Z,10.90
2019-03-11T10:23:43.002Z,10.90
2019-03-11T10:26:12.118Z,11.00
2019-03-11T10:28:41.738Z,11.10
2019-03-11T10:31:11.144Z,11.10
2019-03-11T10:33:40.406Z,11.20
2019-03-11T10:36:09.724Z,11.30
2019-03-11T10:38:39.001Z,11.20
2019-03-11T10:41:08.444Z,11.20
2019-03-11T10:43:37.744Z,11.30
2019-03-11T10:46:07.445Z,11.20
2019-03-11T10:48:38.584Z,11.20
2019-03-11T10:51:11.949Z,11.30
2019-03-11T10:53:41.524Z,11.30
2019-03-11T10:56:12.600Z,11.20
2019-03-11T10:58:42.450Z,11.20
2019-03-11T11:01:13.252Z,11.20
2019-03-11T11:03:42.444Z,11.20
2019-03-11T11:06:11.883Z,11.20
2019-03-11T11:08:41.665Z,11.30
2019-03-11T11:11:10.962Z,11.40
2019-03-11T11:13:41.182Z,11.30
2019-03-11T11:16:10.178Z,11.30
2019-03-11T11:18:39.583Z,11.30
2019-03-11T11:21:08.702Z,11.30
2019-03-11T11:23:38.064Z,11.30
2019-03-11T11:26:07.271Z,11.40
2019-03-11T11:28:39.708Z,11.40
2019-03-11T11:31:09.136Z,11.40
2019-03-11T11:33:39.211Z,11.50
2019-03-11T11:36:08.522Z,11.60
2019-03-11T11:38:37.702Z,11.70
2019-03-11T11:41:07.769Z,11.70
2019-03-11T11:43:37.165Z,11.80
2019-03-11T11:46:07.343Z,11.90
2019-03-11T11:48:37.388Z,12.00
2019-03-11T11:51:06.525Z,12.10
2019-03-11T11:53:36.203Z,12.20
2019-03-11T11:56:05.724Z,12.20
2019-03-11T11:58:35.623Z,12.20
2019-03-11T12:01:05.562Z,12.20
2019-03-11T12:03:35.262Z,12.30
2019-03-11T12:06:04.924Z,12.30
2019-03-11T12:08:34.322Z,12.30
2019-03-11T12:11:03.650Z,12.30
2019-03-11T12:13:32.810Z,12.30
2019-03-11T12:16:02.361Z,12.30
2019-03-11T12:18:32.621Z,12.40
2019-03-11T12:21:02.040Z,12.40
2019-03-11T12:23:31.869Z,12.40
2019-03-11T12:26:01.233Z,12.20
2019-03-11T12:28:30.592Z,12.00
2019-03-11T12:31:00.140Z,11.70
2019-03-11T12:33:29.699Z,11.30
2019-03-11T12:35:59.004Z,11.00
2019-03-11T12:38:29.158Z,10.70
2019-03-11T12:40:59.211Z,10.30
2019-03-11T12:43:28.942Z,10.10
2019-03-11T12:45:58.810Z,10.00
2019-03-11T12:48:28.826Z,9.90
2019-03-11T12:50:58.542Z,9.90
2019-03-11T12:53:27.942Z,9.80
2019-03-11T12:55:57.680Z,9.50
2019-03-11T12:58:28.808Z,9.20
2019-03-11T13:00:58.588Z,9.10
2019-03-11T13:03:28.288Z,9.00
2019-03-11T13:05:58.090Z,9.00
2019-03-11T13:08:28.024Z,9.00
2019-03-11T13:10:57.883Z,9.00
2019-03-11T13:13:34.830Z,8.80
2019-03-11T13:16:04.061Z,8.70
2019-03-11T13:18:41.710Z,8.80
2019-03-11T13:21:21.682Z,8.80
2019-03-11T13:23:51.489Z,8.70
2019-03-11T13:26:23.304Z,8.60
2019-03-11T13:28:52.818Z,8.60
2019-03-11T13:31:23.923Z,8.50
2019-03-11T13:33:53.343Z,8.50
2019-03-11T13:36:22.917Z,8.40
2019-03-11T13:38:52.526Z,8.40
2019-03-11T13:41:25.291Z,8.20
2019-03-11T13:43:54.499Z,8.10
2019-03-11T13:46:24.861Z,8.10
2019-03-11T13:48:55.344Z,8.10
2019-03-11T13:51:26.693Z,8.00
2019-03-11T13:53:56.276Z,8.00
2019-03-11T13:56:28.542Z,8.00
2019-03-11T13:59:00.925Z,7.90
2019-03-11T14:01:33.802Z,7.80
2019-03-11T14:04:02.862Z,7.80
2019-03-11T14:06:32.423Z,7.70
2019-03-11T14:09:01.682Z,7.60
2019-03-11T14:11:30.862Z,7.60
2019-03-11T14:14:00.603Z,7.50
2019-03-11T14:16:30.783Z,7.60
2019-03-11T14:19:02.038Z,7.50
2019-03-11T14:21:31.379Z,7.50
2019-03-11T14:24:00.709Z,7.40
2019-03-11T14:26:31.258Z,7.40
2019-03-11T14:29:01.718Z,7.50
2019-03-11T14:31:33.257Z,7.40
2019-03-11T14:34:05.398Z,7.50
2019-03-11T14:36:34.866Z,7.40
2019-03-11T14:39:08.141Z,7.40
2019-03-11T14:41:37.399Z,7.40
2019-03-11T14:44:08.160Z,7.40
2019-03-11T14:46:38.860Z,7.30
2019-03-11T14:49:10.199Z,7.30
2019-03-11T14:51:41.978Z,7.20
2019-03-11T14:54:13.165Z,7.20
2019-03-11T14:56:45.988Z,7.30
2019-03-11T14:59:18.311Z,7.20
2019-03-11T15:01:49.425Z,7.20
2019-03-11T15:04:20.305Z,7.10
2019-03-11T15:06:49.518Z,7.20
2019-03-11T15:09:21.779Z,7.10
2019-03-11T15:11:51.454Z,7.10
2019-03-11T15:14:22.365Z,7.10
2019-03-11T15:16:52.604Z,7.10
2019-03-11T15:19:22.600Z,7.00
2019-03-11T15:21:55.282Z,6.90
2019-03-11T15:24:24.801Z,6.80
2019-03-11T15:26:55.462Z,6.80
2019-03-11T15:29:28.121Z,6.80
2019-03-11T15:31:57.947Z,6.70
2019-03-11T15:34:28.463Z,6.70
2019-03-11T15:36:59.936Z,6.60
2019-03-11T15:39:30.623Z,6.60
2019-03-11T15:42:00.721Z,6.60
2019-03-11T15:44:32.025Z,6.60
2019-03-11T15:47:00.963Z,6.50
2019-03-11T15:49:32.287Z,6.40
2019-03-11T15:52:02.441Z,6.40
2019-03-11T15:54:33.958Z,6.30
2019-03-11T15:57:05.558Z,6.30
2019-03-11T15:59:35.338Z,6.30
2019-03-11T16:02:04.865Z,6.30
2019-03-11T16:04:35.449Z,6.30
2019-03-11T16:07:04.941Z,6.30
2019-03-11T16:09:34.482Z,6.20
2019-03-11T16:12:04.359Z,6.20
2019-03-11T16:14:33.640Z,6.10
2019-03-11T16:17:03.501Z,6.10
2019-03-11T16:19:33.777Z,6.10
2019-03-11T16:22:03.639Z,6.00
2019-03-11T16:24:33.261Z,6.00
2019-03-11T16:27:02.783Z,5.90
2019-03-11T16:29:32.758Z,5.90
2019-03-11T16:32:02.837Z,5.90
2019-03-11T16:34:31.978Z,5.80
2019-03-11T16:37:07.941Z,5.80
2019-03-11T16:39:37.718Z,5.80
2019-03-11T16:42:07.558Z,5.70
2019-03-11T16:44:37.078Z,5.70
2019-03-11T16:47:06.838Z,5.60
2019-03-11T16:49:36.598Z,5.60
2019-03-11T16:52:06.398Z,5.60
2019-03-11T16:54:36.419Z,5.60
2019-03-11T16:57:07.158Z,5.50
2019-03-11T16:59:36.319Z,5.50
2019-03-11T17:02:07.915Z,5.40
2019-03-11T17:04:38.714Z,5.30
2019-03-11T17:07:08.042Z,5.30
2019-03-11T17:09:37.538Z,5.30
2019-03-11T17:12:06.986Z,5.20
2019-03-11T17:14:36.438Z,5.20
2019-03-11T17:17:06.839Z,5.10
2019-03-11T17:19:36.306Z,5.10
2019-03-11T17:22:08.274Z,5.10
2019-03-11T17:24:37.378Z,5.10
2019-03-11T17:27:07.322Z,5.10
2019-03-11T17:29:37.438Z,5.10
2019-03-11T17:32:07.318Z,5.00
2019-03-11T17:34:36.858Z,5.00
2019-03-11T17:37:06.478Z,5.00
2019-03-11T17:39:36.619Z,5.00
2019-03-11T17:42:06.398Z,5.00
2019-03-11T17:44:36.572Z,5.00
2019-03-11T17:47:06.197Z,5.00
2019-03-11T17:49:35.778Z,5.00
2019-03-11T17:52:05.423Z,5.00
2019-03-11T17:54:34.898Z,4.90
2019-03-11T17:57:07.298Z,4.90
2019-03-11T17:59:36.678Z,4.90
2019-03-11T18:02:06.218Z,4.90
2019-03-11T18:04:35.479Z,4.90
2019-03-11T18:07:04.818Z,4.80
2019-03-11T18:09:37.398Z,4.80
2019-03-11T18:12:06.649Z,4.80
2019-03-11T18:14:36.370Z,4.80
2019-03-11T18:17:06.586Z,4.70
2019-03-11T18:19:36.438Z,4.70
2019-03-11T18:22:06.106Z,4.70
2019-03-11T18:24:35.306Z,4.70
2019-03-11T18:27:06.208Z,4.70
2019-03-11T18:29:36.343Z,4.60
2019-03-11T18:32:07.501Z,4.60
2019-03-11T18:34:37.285Z,4.50
2019-03-11T18:37:07.162Z,4.50
2019-03-11T18:39:36.289Z,4.40
2019-03-11T18:42:07.619Z,4.60
2019-03-11T18:44:37.028Z,4.50
2019-03-11T18:47:07.068Z,4.40
2019-03-11T18:49:37.024Z,4.30
2019-03-11T18:52:07.005Z,4.30
2019-03-11T18:54:36.974Z,4.30
2019-03-11T18:57:07.055Z,4.30
2019-03-11T18:59:36.634Z,4.30
2019-03-11T19:02:06.684Z,4.30
2019-03-11T19:04:36.081Z,4.30
2019-03-11T19:07:05.546Z,4.20
2019-03-11T19:09:35.174Z,4.30
2019-03-11T19:12:05.086Z,4.30
2019-03-11T19:14:34.589Z,4.30
2019-03-11T19:17:07.872Z,4.20
2019-03-11T19:19:46.131Z,4.20
2019-03-11T19:22:10.345Z,4.20
2019-03-11T19:24:39.662Z,4.30
2019-03-11T19:27:09.344Z,4.30
2019-03-11T19:29:38.853Z,4.30
2019-03-11T19:32:08.746Z,4.30
2019-03-11T19:34:38.771Z,4.30
2019-03-11T19:37:13.600Z,4.30
2019-03-11T19:39:46.202Z,4.30
2019-03-11T19:42:16.365Z,4.20
2019-03-11T19:44:47.486Z,4.20
2019-03-11T19:47:17.340Z,4.20
2019-03-11T19:49:47.002Z,4.20
2019-03-11T19:52:19.279Z,4.20
2019-03-11T19:54:48.993Z,4.10
2019-03-11T19:57:19.618Z,4.10
2019-03-11T19:59:49.706Z,4.20
2019-03-11T20:02:19.794Z,4.10
2019-03-11T20:04:49.987Z,4.10
2019-03-11T20:07:19.791Z,4.10
2019-03-11T20:09:50.080Z,4.10
2019-03-11T20:12:22.735Z,4.10
2019-03-11T20:14:51.234Z,4.10
2019-03-11T20:17:21.608Z,4.10
2019-03-11T20:19:51.459Z,4.10
2019-03-11T20:22:21.458Z,4.10
2019-03-11T20:24:51.794Z,4.00
2019-03-11T20:27:22.151Z,3.90
2019-03-11T20:29:51.649Z,3.80
2019-03-11T20:32:22.808Z,3.80
2019-03-11T20:34:53.897Z,3.70
2019-03-11T20:37:23.456Z,3.70
2019-03-11T20:39:53.276Z,3.70
2019-03-11T20:42:23.060Z,3.60
2019-03-11T20:44:53.169Z,3.60
2019-03-11T20:47:23.214Z,3.60
2019-03-11T20:49:52.703Z,3.50
2019-03-11T20:52:22.222Z,3.50
2019-03-11T20:54:52.149Z,3.50
2019-03-11T20:57:22.536Z,3.40
2019-03-11T20:59:52.782Z,3.40
2019-03-11T21:02:26.882Z,3.40
2019-03-11T21:04:57.098Z,3.40
2019-03-11T21:07:32.780Z,3.30
2019-03-11T21:10:04.834Z,3.30
2019-03-11T21:12:34.630Z,3.30
2019-03-11T21:15:08.717Z,3.30
2019-03-11T21:17:38.849Z,3.20
2019-03-11T21:20:16.666Z,3.20
2019-03-11T21:22:46.617Z,3.20
2019-03-11T21:25:24.742Z,3.10
2019-03-11T21:27:54.314Z,3.10
2019-03-11T21:30:27.625Z,3.10
2019-03-11T21:32:58.879Z,3.10
2019-03-11T21:35:29.430Z,3.10
2019-03-11T21:37:59.743Z,3.10
2019-03-11T21:40:30.559Z,3.00
2019-03-11T21:43:00.554Z,3.00
2019-03-11T21:45:34.622Z,3.00
2019-03-11T21:48:01.972Z,3.00
2019-03-11T21:50:32.428Z,3.00
2019-03-11T21:53:02.632Z,3.00
2019-03-11T21:55:32.050Z,2.90
2019-03-11T21:58:12.494Z,2.90
2019-03-11T22:00:35.184Z,2.90
2019-03-11T22:03:05.962Z,3.00
2019-03-11T22:05:36.203Z,3.00
2019-03-11T22:08:05.745Z,3.00
2019-03-11T22:10:35.642Z,3.00
2019-03-11T22:13:04.964Z,3.00
2019-03-11T22:15:40.141Z,3.00
2019-03-11T22:18:11.163Z,3.00
2019-03-11T22:20:40.617Z,3.00
2019-03-11T22:23:13.342Z,3.00
2019-03-11T22:25:43.100Z,2.90
2019-03-11T22:28:13.179Z,2.90
2019-03-11T22:30:42.679Z,2.80
2019-03-11T22:33:12.042Z,2.80
2019-03-11T22:35:41.401Z,2.80
2019-03-11T22:38:10.902Z,2.80
2019-03-11T22:40:40.642Z,2.80
2019-03-11T22:43:11.322Z,2.80
2019-03-11T22:45:40.803Z,2.80
2019-03-11T22:48:10.221Z,2.80
2019-03-11T22:50:39.782Z,2.80
2019-03-11T22:53:12.830Z,2.80
2019-03-11T22:55:42.685Z,2.80
2019-03-11T22:58:12.762Z,2.80
2019-03-11T23:00:47.012Z,2.70
2019-03-11T23:03:16.733Z,2.70
2019-03-11T23:05:57.813Z,2.70
2019-03-11T23:08:17.652Z,2.70
2019-03-11T23:10:47.097Z,2.70
2019-03-11T23:13:16.492Z,2.70
2019-03-11T23:15:46.093Z,2.70
2019-03-11T23:18:16.292Z,2.70
2019-03-11T23:20:46.082Z,2.70
2019-03-11T23:23:15.799Z,2.60
2019-03-11T23:25:45.199Z,2.60
2019-03-11T23:28:14.678Z,2.60
2019-03-11T23:30:44.425Z,2.50
2019-03-11T23:33:14.284Z,2.50
2019-03-11T23:35:44.578Z,2.40
2019-03-11T23:38:14.417Z,2.40
2019-03-11T23:40:44.258Z,2.20
2019-03-11T23:43:14.320Z,2.20
2019-03-11T23:45:43.645Z,2.10
2019-03-11T23:48:13.992Z,2.10
2019-03-11T23:50:43.501Z,2.00
2019-03-11T23:53:16.177Z,2.00
2019-03-11T23:55:45.938Z,1.90
2019-03-11T23:58:15.638Z,1.90
